createdAt,value
2022-11-27T00:00:15.469Z,88.0
2022-11-27T00:01:15.478Z,88.0
2022-11-27T00:02:15.653Z,88.2
2022-11-27T00:03:16.161Z,88.1
2022-11-27T00:04:15.760Z,88.4
2022-11-27T00:05:15.508Z,88.4
2022-11-27T00:06:15.519Z,88.4
2022-11-27T00:07:15.726Z,88.4
2022-11-27T00:08:15.533Z,88.4
2022-11-27T00:09:15.542Z,88.4
2022-11-27T00:10:15.553Z,88.4
2022-11-27T00:11:15.558Z,88.6
2022-11-27T00:12:15.573Z,88.6
2022-11-27T00:13:15.573Z,88.7
2022-11-27T00:14:15.585Z,88.8
2022-11-27T00:15:17.609Z,88.9
2022-11-27T00:16:16.026Z,89.0
2022-11-27T00:17:15.596Z,88.9
2022-11-27T00:18:15.602Z,88.8
2022-11-27T00:19:15.617Z,88.9
2022-11-27T00:20:15.625Z,89.0
2022-11-27T00:21:15.619Z,89.0
2022-11-27T00:22:15.628Z,89.0
2022-11-27T00:23:15.637Z,89.0
2022-11-27T00:24:15.652Z,89.1
2022-11-27T00:25:15.647Z,89.0
2022-11-27T00:26:15.656Z,88.9
2022-11-27T00:27:15.659Z,89.1
2022-11-27T00:28:15.663Z,89.0
2022-11-27T00:29:15.675Z,89.0
2022-11-27T00:30:15.675Z,89.1
2022-11-27T00:31:15.925Z,89.1
2022-11-27T00:32:15.691Z,89.2
2022-11-27T00:33:15.712Z,89.1
2022-11-27T00:34:15.723Z,89.2
2022-11-27T00:35:15.706Z,89.4
2022-11-27T00:36:15.723Z,89.3
2022-11-27T00:37:15.721Z,89.5
2022-11-27T00:38:15.738Z,89.6
2022-11-27T00:39:15.732Z,89.7
2022-11-27T00:40:15.747Z,89.5
2022-11-27T00:41:15.753Z,89.4
2022-11-27T00:42:15.757Z,89.5
2022-11-27T00:43:15.764Z,89.5
2022-11-27T00:44:15.760Z,89.5
2022-11-27T00:45:15.772Z,90.0
2022-11-27T00:46:16.023Z,89.7
2022-11-27T00:47:15.793Z,89.7
2022-11-27T00:48:15.793Z,89.8
2022-11-27T00:49:15.790Z,89.6
2022-11-27T00:50:15.803Z,89.7
2022-11-27T00:51:15.973Z,89.6
2022-11-27T00:52:15.811Z,89.6
2022-11-27T00:53:15.826Z,89.7
2022-11-27T00:54:15.825Z,89.7
2022-11-27T00:55:15.835Z,90.0
2022-11-27T00:56:15.842Z,89.9
2022-11-27T00:57:15.843Z,89.8
2022-11-27T00:58:15.847Z,89.8
2022-11-27T00:59:15.880Z,90.2
2022-11-27T01:00:15.863Z,90.1
2022-11-27T01:01:15.955Z,90.0
2022-11-27T01:02:16.100Z,90.1
2022-11-27T01:03:16.131Z,89.9
2022-11-27T01:04:15.892Z,89.9
2022-11-27T01:05:15.895Z,89.9
2022-11-27T01:06:15.894Z,90.0
2022-11-27T01:07:16.083Z,90.2
2022-11-27T01:08:15.912Z,90.2
2022-11-27T01:09:15.918Z,90.1
2022-11-27T01:10:15.960Z,90.3
2022-11-27T01:11:15.925Z,90.2
2022-11-27T01:12:15.936Z,90.2
2022-11-27T01:13:15.945Z,90.2
2022-11-27T01:14:15.949Z,90.2
2022-11-27T01:15:15.956Z,90.3
2022-11-27T01:16:16.202Z,90.3
2022-11-27T01:17:15.974Z,90.5
2022-11-27T01:18:15.979Z,90.4
2022-11-27T01:19:15.982Z,90.3
2022-11-27T01:20:16.007Z,90.3
2022-11-27T01:21:16.002Z,90.4
2022-11-27T01:22:15.998Z,90.4
2022-11-27T01:23:16.008Z,90.4
2022-11-27T01:24:16.013Z,90.4
2022-11-27T01:25:16.022Z,90.5
2022-11-27T01:26:16.026Z,90.4
2022-11-27T01:27:16.034Z,90.5
2022-11-27T01:28:16.052Z,90.4
2022-11-27T01:29:16.044Z,90.5
2022-11-27T01:30:16.057Z,90.4
2022-11-27T01:31:16.234Z,90.5
2022-11-27T01:49:16.521Z,90.7
2022-11-27T01:50:16.177Z,90.7
2022-11-27T01:51:16.176Z,90.7
2022-11-27T01:52:16.187Z,91.0
2022-11-27T01:53:16.189Z,90.8
2022-11-27T01:54:16.200Z,90.7
2022-11-27T01:55:16.229Z,90.8
2022-11-27T01:56:16.214Z,90.9
2022-11-27T01:57:16.219Z,90.7
2022-11-27T01:58:16.221Z,90.7
2022-11-27T01:59:16.228Z,90.8
2022-11-27T02:00:16.238Z,90.8
2022-11-27T02:01:16.614Z,90.9
2022-11-27T02:02:16.631Z,90.8
2022-11-27T02:03:16.518Z,90.7
2022-11-27T02:04:16.253Z,90.8
2022-11-27T02:05:16.271Z,91.0
2022-11-27T02:06:16.269Z,90.8
2022-11-27T02:07:16.465Z,90.9
2022-11-27T02:08:16.288Z,90.9
2022-11-27T02:09:16.299Z,90.8
2022-11-27T02:10:16.306Z,90.7
2022-11-27T02:11:16.315Z,90.8
2022-11-27T02:12:16.318Z,90.9
2022-11-27T02:13:16.323Z,90.9
2022-11-27T02:14:16.337Z,91.0
2022-11-27T02:15:16.338Z,90.9
2022-11-27T02:16:18.628Z,90.9
2022-11-27T02:17:16.373Z,90.9
2022-11-27T02:18:16.357Z,91.0
2022-11-27T02:19:16.363Z,90.9
2022-11-27T02:20:16.379Z,90.9
2022-11-27T02:21:16.377Z,90.9
2022-11-27T02:22:16.386Z,90.9
2022-11-27T02:23:16.389Z,90.9
2022-11-27T02:24:16.395Z,91.0
2022-11-27T02:25:16.404Z,91.1
2022-11-27T02:26:16.406Z,91.1
2022-11-27T02:27:16.421Z,91.1
2022-11-27T02:28:16.422Z,91.3
2022-11-27T02:29:16.425Z,91.0
2022-11-27T02:30:16.443Z,91.0
2022-11-27T02:31:16.667Z,91.0
2022-11-27T02:32:16.446Z,91.0
2022-11-27T02:33:16.456Z,90.9
2022-11-27T02:34:16.465Z,91.0
2022-11-27T02:35:16.462Z,91.0
2022-11-27T02:36:16.475Z,91.0
2022-11-27T02:37:16.480Z,90.9
2022-11-27T02:38:16.488Z,91.0
2022-11-27T02:39:16.499Z,91.0
2022-11-27T02:40:16.497Z,91.1
2022-11-27T02:41:16.513Z,91.2
2022-11-27T02:42:16.512Z,91.3
2022-11-27T02:43:16.514Z,91.3
2022-11-27T02:44:16.528Z,91.2
2022-11-27T02:45:16.536Z,91.2
2022-11-27T02:46:16.732Z,91.1
2022-11-27T02:47:16.552Z,91.0
2022-11-27T02:48:16.561Z,90.9
2022-11-27T02:49:16.579Z,91.0
2022-11-27T02:50:16.580Z,91.1
2022-11-27T02:51:16.590Z,91.3
2022-11-27T02:52:16.597Z,91.1
2022-11-27T02:53:16.606Z,91.1
2022-11-27T02:54:16.629Z,91.0
2022-11-27T02:55:16.665Z,91.0
2022-11-27T02:56:16.661Z,91.0
2022-11-27T02:57:16.703Z,90.9
2022-11-27T02:58:16.674Z,91.0
2022-11-27T02:59:16.640Z,91.0
2022-11-27T03:00:16.653Z,90.9
2022-11-27T03:01:16.849Z,90.9
2022-11-27T03:02:16.896Z,90.9
2022-11-27T03:03:16.949Z,90.9
2022-11-27T03:04:16.679Z,90.9
2022-11-27T03:05:16.687Z,90.9
2022-11-27T03:06:16.700Z,91.1
2022-11-27T03:07:16.929Z,91.0
2022-11-27T03:08:16.718Z,90.9
2022-11-27T03:09:16.726Z,91.1
2022-11-27T03:10:16.727Z,91.2
2022-11-27T03:11:16.728Z,91.0
2022-11-27T03:12:16.748Z,90.9
2022-11-27T03:13:16.740Z,91.1
2022-11-27T03:14:16.765Z,91.0
2022-11-27T03:15:16.759Z,91.1
2022-11-27T03:16:17.015Z,91.0
2022-11-27T03:17:16.778Z,91.1
2022-11-27T03:18:16.782Z,91.1
2022-11-27T03:19:17.282Z,91.0
2022-11-27T03:20:16.816Z,90.9
2022-11-27T03:21:16.804Z,90.9
2022-11-27T03:22:16.800Z,90.9
2022-11-27T03:23:16.810Z,90.9
2022-11-27T03:24:16.818Z,91.0
2022-11-27T03:25:16.820Z,90.9
2022-11-27T03:26:16.831Z,90.9
2022-11-27T03:27:16.836Z,90.9
2022-11-27T03:28:16.880Z,91.0
2022-11-27T03:29:16.846Z,90.9
2022-11-27T03:30:16.892Z,91.0
2022-11-27T03:31:17.159Z,91.1
2022-11-27T03:32:16.914Z,91.1
2022-11-27T03:33:16.867Z,91.0
2022-11-27T03:34:16.926Z,90.9
2022-11-27T03:35:16.887Z,91.0
2022-11-27T03:36:16.903Z,91.0
2022-11-27T03:37:16.892Z,91.0
2022-11-27T03:38:16.897Z,91.0
2022-11-27T03:39:16.910Z,90.9
2022-11-27T03:40:16.915Z,91.0
2022-11-27T03:41:16.916Z,90.9
2022-11-27T03:42:16.928Z,91.1
2022-11-27T03:43:16.930Z,91.2
2022-11-27T03:44:16.938Z,91.0
2022-11-27T03:45:16.944Z,91.1
2022-11-27T03:46:17.182Z,91.0
2022-11-27T03:47:17.160Z,91.0
2022-11-27T03:48:16.960Z,91.1
2022-11-27T03:49:16.968Z,91.0
2022-11-27T03:50:16.983Z,91.3
2022-11-27T03:51:16.989Z,91.3
2022-11-27T03:52:16.993Z,91.0
2022-11-27T03:53:17.001Z,91.0
2022-11-27T03:54:17.010Z,90.9
2022-11-27T03:55:17.025Z,91.1
2022-11-27T03:56:17.021Z,91.1
2022-11-27T03:57:17.029Z,91.0
2022-11-27T03:58:17.029Z,91.0
2022-11-27T03:59:17.050Z,91.2
2022-11-27T04:00:17.050Z,91.1
2022-11-27T04:01:17.059Z,91.1
2022-11-27T04:02:17.298Z,91.1
2022-11-27T04:03:17.071Z,91.2
2022-11-27T04:04:17.255Z,91.1
2022-11-27T04:05:17.099Z,91.0
2022-11-27T04:06:17.096Z,90.9
2022-11-27T04:07:17.398Z,90.9
2022-11-27T04:08:17.124Z,90.9
2022-11-27T04:09:17.119Z,91.2
2022-11-27T04:10:17.121Z,90.9
2022-11-27T04:11:17.132Z,90.9
2022-11-27T04:12:17.135Z,91.0
2022-11-27T04:13:17.139Z,91.0
2022-11-27T04:14:17.147Z,91.0
2022-11-27T04:15:17.156Z,91.0
2022-11-27T04:16:17.401Z,91.0
2022-11-27T04:17:17.167Z,91.0
2022-11-27T04:18:17.171Z,91.1
2022-11-27T04:19:17.180Z,91.4
2022-11-27T04:20:17.189Z,91.3
2022-11-27T04:21:17.193Z,91.3
2022-11-27T04:22:17.206Z,91.3
2022-11-27T04:23:17.211Z,91.3
2022-11-27T04:24:17.219Z,91.4
2022-11-27T04:25:17.223Z,91.5
2022-11-27T04:26:17.240Z,91.5
2022-11-27T04:27:17.239Z,91.6
2022-11-27T04:28:17.242Z,91.7
2022-11-27T04:29:17.255Z,91.7
2022-11-27T04:30:17.268Z,91.7
2022-11-27T04:31:17.624Z,91.7
2022-11-27T04:32:17.272Z,91.6
2022-11-27T04:33:17.282Z,91.6
2022-11-27T04:34:17.283Z,91.5
2022-11-27T04:35:17.290Z,91.4
2022-11-27T04:36:17.314Z,91.4
2022-11-27T04:37:17.310Z,91.4
2022-11-27T04:38:17.316Z,91.4
2022-11-27T04:39:17.324Z,91.4
2022-11-27T04:40:17.336Z,91.4
2022-11-27T04:41:17.339Z,91.4
2022-11-27T04:42:17.345Z,91.4
2022-11-27T04:43:17.353Z,91.5
2022-11-27T04:44:17.361Z,91.4
2022-11-27T04:45:17.372Z,91.5
2022-11-27T04:46:17.525Z,91.5
2022-11-27T04:47:17.381Z,91.6
2022-11-27T04:48:17.383Z,91.5
2022-11-27T04:49:17.392Z,91.5
2022-11-27T04:50:17.401Z,91.4
2022-11-27T04:51:17.404Z,91.4
2022-11-27T04:52:17.413Z,91.3
2022-11-27T04:53:17.416Z,91.3
2022-11-27T04:54:17.427Z,91.3
2022-11-27T04:55:17.430Z,91.4
2022-11-27T04:56:17.440Z,91.4
2022-11-27T04:57:17.442Z,91.3
2022-11-27T04:58:17.463Z,91.3
2022-11-27T04:59:17.461Z,91.3
2022-11-27T05:00:17.467Z,91.3
2022-11-27T05:01:17.663Z,91.4
2022-11-27T05:02:17.485Z,91.4
2022-11-27T05:03:17.697Z,91.2
2022-11-27T05:04:17.498Z,91.4
2022-11-27T05:05:17.534Z,91.4
2022-11-27T05:06:17.510Z,91.5
2022-11-27T05:07:17.631Z,91.4
2022-11-27T05:08:17.528Z,91.4
2022-11-27T05:09:17.533Z,91.3
2022-11-27T05:10:17.552Z,91.2
2022-11-27T05:11:17.554Z,91.3
2022-11-27T05:12:17.557Z,91.0
2022-11-27T05:13:17.800Z,91.2
2022-11-27T05:14:17.589Z,91.0
2022-11-27T05:15:17.574Z,91.2
2022-11-27T05:16:17.810Z,90.9
2022-11-27T05:17:17.605Z,91.0
2022-11-27T05:18:17.598Z,91.1
2022-11-27T05:19:17.612Z,91.1
2022-11-27T05:20:17.649Z,90.6
2022-11-27T05:21:17.633Z,90.5
2022-11-27T05:22:17.651Z,90.4
2022-11-27T05:23:17.655Z,90.3
2022-11-27T05:24:17.672Z,90.5
2022-11-27T05:25:17.667Z,90.4
2022-11-27T05:26:17.663Z,90.2
2022-11-27T05:27:17.667Z,90.4
2022-11-27T05:28:27.245Z,90.0
2022-11-27T05:29:17.680Z,90.2
2022-11-27T05:30:17.696Z,90.3
2022-11-27T05:31:17.925Z,90.1
2022-11-27T05:32:17.703Z,90.2
2022-11-27T05:33:17.718Z,90.5
2022-11-27T05:34:17.725Z,90.4
2022-11-27T05:35:17.723Z,90.3
2022-11-27T05:36:17.752Z,89.9
2022-11-27T05:37:20.298Z,90.1
2022-11-27T05:38:17.759Z,90.0
2022-11-27T05:39:17.760Z,90.2
2022-11-27T05:40:17.766Z,89.9
2022-11-27T05:41:17.800Z,89.6
2022-11-27T05:42:17.788Z,89.5
2022-11-27T05:43:17.790Z,89.7
2022-11-27T05:44:17.794Z,90.0
2022-11-27T05:45:17.792Z,89.7
2022-11-27T05:46:17.923Z,89.5
2022-11-27T05:47:17.816Z,89.8
2022-11-27T05:48:17.859Z,89.8
2022-11-27T05:49:17.853Z,89.8
2022-11-27T05:50:17.872Z,89.7
2022-11-27T05:51:17.859Z,89.7
2022-11-27T05:52:17.871Z,89.5
2022-11-27T05:53:17.874Z,89.5
2022-11-27T05:54:17.874Z,89.4
2022-11-27T05:55:17.907Z,89.3
2022-11-27T05:56:17.906Z,89.3
2022-11-27T05:57:17.895Z,89.3
2022-11-27T05:58:17.899Z,89.4
2022-11-27T05:59:17.910Z,89.3
2022-11-27T06:00:17.939Z,89.3
2022-11-27T06:01:17.925Z,89.4
2022-11-27T06:02:29.595Z,89.4
2022-11-27T06:03:18.116Z,89.4
2022-11-27T06:04:17.958Z,89.5
2022-11-27T06:05:17.956Z,89.6
2022-11-27T06:06:17.969Z,89.6
2022-11-27T06:07:18.188Z,89.7
2022-11-27T06:08:17.969Z,89.7
2022-11-27T06:09:17.984Z,89.8
2022-11-27T06:10:17.988Z,89.8
2022-11-27T06:11:17.985Z,89.9
2022-11-27T06:12:18.204Z,90.0
2022-11-27T06:13:18.007Z,90.0
2022-11-27T06:14:18.016Z,90.1
2022-11-27T06:15:18.018Z,90.0
2022-11-27T06:16:18.274Z,89.8
2022-11-27T06:17:18.029Z,89.8
2022-11-27T06:18:18.064Z,89.7
2022-11-27T06:19:18.051Z,90.1
2022-11-27T06:20:18.058Z,89.9
2022-11-27T06:21:18.090Z,89.8
2022-11-27T06:22:18.209Z,89.9
2022-11-27T06:23:18.122Z,89.8
2022-11-27T06:24:18.091Z,89.8
2022-11-27T06:25:18.095Z,89.9
2022-11-27T06:26:18.091Z,89.7
2022-11-27T06:27:18.113Z,89.7
2022-11-27T06:28:18.110Z,89.7
2022-11-27T06:29:18.117Z,89.7
2022-11-27T06:30:18.195Z,89.7
2022-11-27T06:31:18.973Z,89.8
2022-11-27T06:32:18.142Z,89.7
2022-11-27T06:33:18.157Z,89.9
2022-11-27T06:34:18.168Z,89.8
2022-11-27T06:35:18.159Z,90.0
2022-11-27T06:36:18.174Z,89.9
2022-11-27T06:37:18.175Z,89.9
2022-11-27T06:38:18.182Z,90.0
2022-11-27T06:39:18.193Z,90.3
2022-11-27T06:40:18.261Z,90.2
2022-11-27T06:41:18.216Z,90.2
2022-11-27T06:42:18.207Z,90.3
2022-11-27T06:43:18.222Z,90.3
2022-11-27T06:44:18.226Z,90.2
2022-11-27T06:45:18.240Z,90.2
2022-11-27T06:46:18.798Z,90.2
2022-11-27T06:47:18.244Z,90.2
2022-11-27T06:48:18.255Z,90.3
2022-11-27T06:49:18.263Z,90.2
2022-11-27T06:50:18.272Z,90.2
2022-11-27T06:51:18.287Z,90.2
2022-11-27T06:52:18.326Z,90.2
2022-11-27T06:53:18.320Z,90.3
2022-11-27T06:54:18.311Z,90.6
2022-11-27T06:55:18.337Z,90.3
2022-11-27T06:56:18.339Z,90.2
2022-11-27T06:57:18.332Z,90.2
2022-11-27T06:58:18.341Z,90.2
2022-11-27T06:59:18.350Z,90.1
2022-11-27T07:00:18.364Z,90.1
2022-11-27T07:01:18.557Z,90.1
2022-11-27T07:02:18.701Z,90.5
2022-11-27T07:03:18.405Z,90.4
2022-11-27T07:04:18.404Z,90.3
2022-11-27T07:05:18.421Z,90.2
2022-11-27T07:06:18.428Z,90.2
2022-11-27T07:07:18.692Z,90.1
2022-11-27T07:08:18.440Z,90.3
2022-11-27T07:09:18.436Z,90.3
2022-11-27T07:10:18.455Z,90.3
2022-11-27T07:11:18.603Z,90.3
2022-11-27T07:12:18.502Z,90.2
2022-11-27T07:13:18.474Z,90.3
2022-11-27T07:14:18.508Z,90.2
2022-11-27T07:15:18.496Z,90.4
2022-11-27T07:16:18.937Z,90.3
2022-11-27T07:17:18.535Z,90.4
2022-11-27T07:18:18.553Z,90.3
2022-11-27T07:19:18.543Z,90.4
2022-11-27T07:20:18.560Z,90.3
2022-11-27T07:21:18.553Z,90.5
2022-11-27T07:22:18.570Z,90.4
2022-11-27T07:23:18.583Z,90.6
2022-11-27T07:24:18.567Z,90.4
2022-11-27T07:25:18.681Z,90.5
2022-11-27T07:26:18.577Z,90.4
2022-11-27T07:27:18.595Z,90.4
2022-11-27T07:28:19.529Z,90.3
2022-11-27T07:29:18.592Z,90.5
2022-11-27T07:30:18.638Z,90.6
2022-11-27T07:31:18.783Z,90.4
2022-11-27T07:32:18.610Z,90.3
2022-11-27T07:33:18.616Z,90.3
2022-11-27T07:34:22.167Z,90.4
2022-11-27T07:35:18.642Z,90.2
2022-11-27T07:36:18.639Z,90.2
2022-11-27T07:37:18.653Z,90.3
2022-11-27T07:38:18.743Z,90.3
2022-11-27T07:40:01.170Z,90.3
2022-11-27T07:40:18.686Z,90.3
2022-11-27T07:41:18.709Z,90.3
2022-11-27T07:42:39.304Z,90.2
2022-11-27T07:43:18.701Z,90.2
2022-11-27T07:44:18.710Z,90.2
2022-11-27T07:45:18.715Z,90.1
2022-11-27T07:46:19.137Z,90.2
2022-11-27T07:47:18.727Z,90.2
2022-11-27T07:48:18.738Z,90.2
2022-11-27T07:49:18.748Z,90.1
2022-11-27T07:50:18.747Z,90.1
2022-11-27T07:51:18.756Z,90.1
2022-11-27T07:52:18.761Z,90.1
2022-11-27T07:53:18.773Z,90.2
2022-11-27T07:54:18.780Z,90.1
2022-11-27T07:55:18.795Z,90.2
2022-11-27T07:56:18.799Z,90.2
2022-11-27T07:57:18.808Z,90.2
2022-11-27T07:58:18.818Z,90.2
2022-11-27T07:59:18.823Z,90.1
2022-11-27T08:00:18.837Z,90.1
2022-11-27T08:01:19.285Z,90.1
2022-11-27T08:02:18.859Z,90.0
2022-11-27T08:03:18.860Z,90.2
2022-11-27T08:04:19.000Z,90.2
2022-11-27T08:05:19.223Z,90.3
2022-11-27T08:06:18.887Z,90.4
2022-11-27T08:07:19.091Z,90.3
2022-11-27T08:08:18.905Z,90.3
2022-11-27T08:09:18.906Z,90.3
2022-11-27T08:10:18.923Z,90.2
2022-11-27T08:11:18.930Z,90.2
2022-11-27T08:12:18.937Z,90.2
2022-11-27T08:13:18.956Z,90.3
2022-11-27T08:14:18.963Z,90.2
2022-11-27T08:15:18.964Z,90.1
2022-11-27T08:16:19.181Z,90.0
2022-11-27T08:17:18.986Z,89.9
2022-11-27T08:18:18.983Z,89.8
2022-11-27T08:19:18.999Z,89.7
2022-11-27T08:20:19.009Z,89.6
2022-11-27T08:21:19.004Z,89.6
2022-11-27T08:22:19.010Z,89.6
2022-11-27T08:23:19.019Z,89.6
2022-11-27T08:24:19.036Z,89.6
2022-11-27T08:25:19.048Z,89.6
2022-11-27T08:26:19.045Z,89.7
2022-11-27T08:27:19.049Z,89.7
2022-11-27T08:28:19.059Z,89.6
2022-11-27T08:29:19.072Z,89.6
2022-11-27T08:30:19.096Z,89.6
2022-11-27T08:31:19.332Z,89.6
2022-11-27T08:32:19.093Z,89.6
2022-11-27T08:33:19.100Z,89.5
2022-11-27T08:34:19.112Z,89.4
2022-11-27T08:35:19.609Z,89.5
2022-11-27T08:36:19.139Z,89.4
2022-11-27T08:37:19.139Z,89.0
2022-11-27T08:38:19.147Z,89.0
2022-11-27T08:39:19.150Z,89.2
2022-11-27T08:40:19.160Z,89.0
2022-11-27T08:41:19.169Z,89.1
2022-11-27T08:42:19.167Z,88.7
2022-11-27T08:43:19.183Z,89.1
2022-11-27T08:44:19.178Z,89.1
2022-11-27T08:45:19.210Z,88.8
2022-11-27T08:46:19.532Z,88.8
2022-11-27T08:47:19.197Z,88.8
2022-11-27T08:48:19.215Z,88.7
2022-11-27T08:49:19.225Z,88.2
2022-11-27T08:50:19.224Z,88.2
2022-11-27T08:51:19.248Z,88.1
2022-11-27T08:52:19.245Z,88.2
2022-11-27T08:53:19.248Z,88.3
2022-11-27T08:54:19.257Z,88.4
2022-11-27T08:55:19.263Z,87.7
2022-11-27T08:56:19.278Z,87.9
2022-11-27T08:57:19.288Z,88.1
2022-11-27T08:58:19.291Z,88.3
2022-11-27T08:59:19.304Z,87.9
2022-11-27T09:00:28.389Z,87.8
2022-11-27T09:01:19.645Z,87.9
2022-11-27T09:02:19.320Z,87.9
2022-11-27T09:03:19.330Z,87.8
2022-11-27T09:04:19.624Z,87.7
2022-11-27T09:05:19.353Z,87.6
2022-11-27T09:06:19.354Z,87.9
2022-11-27T09:07:19.629Z,88.1
2022-11-27T09:08:19.373Z,87.8
2022-11-27T09:09:19.379Z,88.1
2022-11-27T09:10:19.408Z,87.6
2022-11-27T09:11:19.395Z,88.1
2022-11-27T09:12:19.398Z,87.9
2022-11-27T09:13:19.423Z,88.0
2022-11-27T09:14:19.422Z,87.8
2022-11-27T09:15:19.431Z,87.7
2022-11-27T09:16:19.639Z,87.5
2022-11-27T09:17:19.441Z,87.7
2022-11-27T09:18:19.452Z,87.7
2022-11-27T09:19:19.473Z,87.4
2022-11-27T09:20:19.479Z,87.4
2022-11-27T09:21:19.483Z,87.4
2022-11-27T09:22:19.489Z,87.4
2022-11-27T09:23:19.543Z,87.5
2022-11-27T09:24:19.501Z,87.4
2022-11-27T09:25:19.511Z,87.3
2022-11-27T09:26:19.515Z,87.2
2022-11-27T09:27:19.526Z,87.3
2022-11-27T09:28:19.540Z,87.2
2022-11-27T09:29:19.542Z,87.0
2022-11-27T09:30:19.559Z,87.4
2022-11-27T09:31:19.556Z,87.3
2022-11-27T09:32:19.869Z,86.9
2022-11-27T09:33:19.576Z,86.9
2022-11-27T09:34:19.582Z,87.1
2022-11-27T09:35:19.873Z,86.7
2022-11-27T09:36:19.607Z,87.0
2022-11-27T09:37:19.610Z,86.7
2022-11-27T09:38:19.624Z,87.1
2022-11-27T09:39:19.646Z,86.9
2022-11-27T09:40:19.642Z,87.2
2022-11-27T09:41:19.655Z,87.2
2022-11-27T09:42:19.652Z,87.3
2022-11-27T09:43:19.663Z,87.3
2022-11-27T09:44:19.668Z,87.0
2022-11-27T09:45:19.674Z,87.2
2022-11-27T09:46:19.966Z,87.1
2022-11-27T09:47:19.701Z,87.1
2022-11-27T09:48:19.708Z,86.9
2022-11-27T09:49:19.715Z,87.2
2022-11-27T09:50:19.728Z,87.4
2022-11-27T09:51:19.738Z,87.3
2022-11-27T09:52:19.742Z,87.5
2022-11-27T09:53:19.747Z,87.4
2022-11-27T09:54:19.768Z,87.3
2022-11-27T09:55:19.773Z,87.4
2022-11-27T09:56:19.787Z,87.5
2022-11-27T09:57:19.789Z,87.4
2022-11-27T09:58:19.797Z,87.3
2022-11-27T09:59:19.809Z,87.4
2022-11-27T10:00:19.819Z,87.3
2022-11-27T10:01:19.973Z,87.0
2022-11-27T10:02:20.349Z,86.8
2022-11-27T10:03:20.071Z,86.8
2022-11-27T10:04:19.933Z,87.0
2022-11-27T10:05:20.886Z,86.7
2022-11-27T10:06:19.861Z,86.5
2022-11-27T10:07:20.095Z,86.8
2022-11-27T10:08:19.884Z,86.7
2022-11-27T10:09:19.884Z,85.8
2022-11-27T10:10:19.899Z,85.9
2022-11-27T10:11:19.902Z,86.2
2022-11-27T10:12:19.925Z,86.0
2022-11-27T10:13:19.921Z,86.2
2022-11-27T10:14:19.953Z,85.4
2022-11-27T10:15:19.957Z,85.9
2022-11-27T10:16:20.231Z,85.7
2022-11-27T10:17:19.959Z,85.3
2022-11-27T10:18:19.974Z,85.7
2022-11-27T10:19:19.974Z,85.0
2022-11-27T10:20:20.211Z,85.3
2022-11-27T10:21:19.995Z,85.0
2022-11-27T10:22:21.640Z,85.0
2022-11-27T10:23:20.011Z,84.3
2022-11-27T10:24:20.039Z,85.0
2022-11-27T10:25:20.037Z,84.8
2022-11-27T10:26:20.050Z,84.1
2022-11-27T10:27:20.059Z,85.0
2022-11-27T10:28:20.056Z,84.7
2022-11-27T10:29:20.068Z,84.3
2022-11-27T10:30:20.361Z,84.6
2022-11-27T10:31:20.276Z,84.1
2022-11-27T10:33:20.098Z,83.0
2022-11-27T10:34:20.109Z,84.1
2022-11-27T10:35:20.129Z,84.5
2022-11-27T10:36:20.126Z,84.6
2022-11-27T10:37:20.169Z,84.1
2022-11-27T10:38:20.143Z,84.0
2022-11-27T10:39:20.151Z,83.9
2022-11-27T10:40:20.211Z,84.3
2022-11-27T10:42:20.183Z,84.2
2022-11-27T10:43:20.212Z,84.5
2022-11-27T10:44:20.191Z,84.5
2022-11-27T10:45:20.202Z,84.2
2022-11-27T10:46:20.542Z,83.0
2022-11-27T10:47:20.220Z,83.3
2022-11-27T10:48:20.233Z,83.2
2022-11-27T10:49:20.232Z,83.2
2022-11-27T10:50:20.247Z,83.3
2022-11-27T10:51:20.258Z,82.9
2022-11-27T10:52:20.269Z,82.7
2022-11-27T10:53:20.267Z,82.8
2022-11-27T10:54:20.278Z,81.5
2022-11-27T10:55:20.300Z,81.9
2022-11-27T10:56:20.288Z,82.1
2022-11-27T10:57:20.302Z,82.5
2022-11-27T10:58:20.303Z,82.2
2022-11-27T10:59:20.315Z,81.0
2022-11-27T11:00:20.324Z,81.7
2022-11-27T11:01:20.773Z,81.8
2022-11-27T11:02:20.553Z,81.0
2022-11-27T11:03:20.349Z,81.0
2022-11-27T11:04:40.282Z,81.7
2022-11-27T11:05:57.164Z,81.2
2022-11-27T11:06:24.422Z,81.7
2022-11-27T11:07:20.622Z,81.8
2022-11-27T11:08:20.411Z,81.6
2022-11-27T11:09:20.417Z,81.4
2022-11-27T11:10:20.432Z,80.5
2022-11-27T11:11:20.441Z,81.3
2022-11-27T11:12:20.453Z,80.3
2022-11-27T11:13:20.462Z,80.5
2022-11-27T11:14:20.464Z,80.5
2022-11-27T11:15:20.478Z,80.8
2022-11-27T11:16:28.369Z,80.1
2022-11-27T11:17:20.736Z,80.7
2022-11-27T11:18:20.556Z,81.2
2022-11-27T11:19:20.529Z,79.9
2022-11-27T11:20:20.532Z,80.9
2022-11-27T11:21:20.568Z,79.6
2022-11-27T11:22:20.554Z,79.3
2022-11-27T11:23:20.566Z,79.4
2022-11-27T11:24:20.579Z,79.7
2022-11-27T11:25:20.630Z,79.0
2022-11-27T11:26:20.626Z,78.6
2022-11-27T11:27:20.614Z,78.2
2022-11-27T11:28:20.660Z,78.9
2022-11-27T11:29:20.635Z,79.0
2022-11-27T11:30:20.623Z,78.6
2022-11-27T11:31:20.934Z,78.6
2022-11-27T11:32:20.672Z,78.0
2022-11-27T11:33:20.646Z,79.1
2022-11-27T11:34:20.650Z,78.4
2022-11-27T11:35:20.672Z,78.6
2022-11-27T11:36:20.665Z,78.1
2022-11-27T11:37:20.710Z,78.0
2022-11-27T11:38:20.678Z,78.3
2022-11-27T11:39:20.695Z,78.8
2022-11-27T11:40:20.692Z,78.3
2022-11-27T11:41:20.712Z,78.3
2022-11-27T11:42:20.739Z,78.0
2022-11-27T11:43:20.719Z,78.6
2022-11-27T11:44:20.732Z,78.4
2022-11-27T11:45:20.757Z,77.9
2022-11-27T11:46:21.052Z,78.3
2022-11-27T11:47:20.767Z,77.9
2022-11-27T11:48:20.781Z,78.3
2022-11-27T11:49:20.777Z,78.3
2022-11-27T11:50:20.815Z,77.4
2022-11-27T11:51:29.601Z,77.8
2022-11-27T11:52:20.812Z,77.9
2022-11-27T11:53:20.857Z,78.0
2022-11-27T11:54:20.829Z,78.0
2022-11-27T11:55:20.819Z,77.8
2022-11-27T11:56:20.852Z,77.3
2022-11-27T11:57:20.839Z,77.7
2022-11-27T11:58:20.888Z,78.2
2022-11-27T11:59:20.951Z,78.4
2022-11-27T12:00:32.374Z,77.7
2022-11-27T12:01:27.977Z,77.4
2022-11-27T12:02:21.111Z,77.6
2022-11-27T12:03:20.918Z,77.7
2022-11-27T12:04:21.125Z,78.0
2022-11-27T12:05:20.931Z,77.8
2022-11-27T12:06:20.931Z,77.5
2022-11-27T12:07:21.241Z,77.5
2022-11-27T12:08:20.950Z,77.6
2022-11-27T12:09:20.963Z,77.2
2022-11-27T12:10:20.971Z,77.5
2022-11-27T12:11:20.980Z,77.7
2022-11-27T12:12:20.998Z,77.7
2022-11-27T12:13:21.007Z,77.4
2022-11-27T12:14:21.008Z,77.2
2022-11-27T12:15:21.013Z,77.1
2022-11-27T12:16:21.175Z,77.1
2022-11-27T12:17:21.043Z,77.1
2022-11-27T12:18:21.044Z,77.3
2022-11-27T12:19:21.057Z,77.3
2022-11-27T12:20:21.077Z,77.2
2022-11-27T12:21:21.086Z,77.3
2022-11-27T12:22:21.098Z,77.3
2022-11-27T12:23:21.100Z,77.2
2022-11-27T12:24:21.115Z,77.1
2022-11-27T12:25:21.119Z,77.1
2022-11-27T12:26:21.130Z,77.3
2022-11-27T12:27:21.137Z,77.4
2022-11-27T12:28:21.151Z,77.3
2022-11-27T12:29:21.160Z,77.3
2022-11-27T12:30:21.186Z,77.1
2022-11-27T12:31:21.444Z,77.1
2022-11-27T12:32:21.181Z,77.2
2022-11-27T12:33:21.184Z,77.3
2022-11-27T12:34:21.199Z,77.5
2022-11-27T12:35:21.207Z,77.6
2022-11-27T12:36:21.216Z,77.5
2022-11-27T12:37:21.225Z,77.5
2022-11-27T12:38:21.280Z,77.5
2022-11-27T12:39:21.247Z,77.5
2022-11-27T12:40:21.245Z,77.5
2022-11-27T12:41:21.274Z,77.6
2022-11-27T12:42:22.551Z,77.5
2022-11-27T12:43:21.287Z,77.6
2022-11-27T12:44:21.295Z,77.7
2022-11-27T12:45:21.297Z,77.8
2022-11-27T12:46:21.490Z,77.8
2022-11-27T12:47:21.324Z,77.9
2022-11-27T12:48:21.342Z,77.9
2022-11-27T12:49:21.343Z,78.0
2022-11-27T12:50:21.350Z,77.9
2022-11-27T12:51:21.356Z,78.1
2022-11-27T12:52:21.377Z,78.2
2022-11-27T12:53:25.405Z,78.3
2022-11-27T12:54:21.386Z,78.5
2022-11-27T12:55:21.435Z,78.4
2022-11-27T12:56:21.413Z,78.3
2022-11-27T12:57:21.402Z,78.4
2022-11-27T12:58:21.406Z,78.4
2022-11-27T12:59:21.424Z,78.6
2022-11-27T13:00:21.468Z,78.7
2022-11-27T13:01:27.067Z,78.7
2022-11-27T13:02:21.595Z,78.7
2022-11-27T13:03:21.472Z,78.7
2022-11-27T13:04:21.478Z,78.7
2022-11-27T13:05:21.477Z,78.8
2022-11-27T13:06:21.485Z,78.7
2022-11-27T13:07:21.748Z,78.7
2022-11-27T13:08:21.519Z,78.8
2022-11-27T13:09:21.522Z,78.8
2022-11-27T13:10:21.529Z,78.7
2022-11-27T13:11:21.539Z,78.8
2022-11-27T13:12:21.547Z,78.8
2022-11-27T13:13:21.568Z,78.8
2022-11-27T13:14:21.566Z,78.8
2022-11-27T13:15:21.579Z,78.9
2022-11-27T13:16:21.779Z,78.8
2022-11-27T13:17:21.603Z,78.9
2022-11-27T13:18:21.619Z,78.8
2022-11-27T13:19:21.622Z,78.9
2022-11-27T13:20:21.639Z,78.9
2022-11-27T13:21:21.845Z,78.7
2022-11-27T13:22:21.857Z,78.8
2022-11-27T13:23:21.680Z,78.8
2022-11-27T13:24:21.670Z,78.8
2022-11-27T13:25:21.683Z,78.8
2022-11-27T13:26:26.866Z,79.0
2022-11-27T13:27:21.699Z,78.9
2022-11-27T13:28:21.720Z,79.1
2022-11-27T13:29:21.723Z,79.2
2022-11-27T13:30:21.741Z,79.4
2022-11-27T13:31:21.930Z,79.2
2022-11-27T13:32:21.751Z,79.2
2022-11-27T13:33:21.756Z,79.1
2022-11-27T13:34:21.767Z,79.1
2022-11-27T13:35:21.782Z,79.1
2022-11-27T13:36:21.800Z,79.3
2022-11-27T13:37:21.805Z,79.4